Time;durP1;ratioP1;P1;durP2;ratioP2;P2;SDS_P1;SDS_P2;PMS_P1;PMS_P2;Temp;Humidity;BMP_temperature;BMP_pressure;BME280_temperature;BME280_humidity;BME280_pressure;Samples;Min_cycle;Max_cycle;Signal;HPM_P1;HPM_P2
2021/07/14 00:00:12;;;;;;;16.15;11.73;;;665.80;2176.00;;;;;;5040282;28;20438;-81
2021/07/14 00:02:38;;;;;;;15.27;12.45;;;665.60;2176.00;;;;;;5022377;28;20029;-81
2021/07/14 00:05:09;;;;;;;15.57;12.60;;;665.60;2176.00;;;;;;5022216;28;20107;-80
2021/07/14 00:07:35;;;;;;;18.48;13.00;;;665.70;2201.60;;;;;;5022476;28;20025;-81
2021/07/14 00:10:06;;;;;;;19.65;12.85;;;665.80;2176.00;;;;;;5022342;28;20055;-81
2021/07/14 00:12:31;;;;;;;17.45;11.75;;;640.90;2176.00;;;;;;5022071;28;20021;-81
2021/07/14 00:15:14;;;;;;;17.77;12.45;;;640.50;2201.60;;;;;;5022655;28;20024;-81
2021/07/14 00:22:03;;;;;;;18.25;12.27;;;640.40;2227.20;;;;;;5022402;28;20056;-82
2021/07/14 00:23:11;;;;;;;17.58;12.50;;;640.30;2252.80;;;;;;5039963;28;20020;-82
2021/07/14 00:25:37;;;;;;;22.80;14.40;;;640.10;2252.80;;;;;;5022122;28;20369;-82
2021/07/14 00:28:03;;;;;;;17.90;12.65;;;640.10;2252.80;;;;;;5022329;28;20021;-81
2021/07/14 00:30:31;;;;;;;18.17;12.27;;;615.30;2278.40;;;;;;5022281;28;20029;-81
2021/07/14 00:32:56;;;;;;;16.67;12.27;;;640.10;2278.40;;;;;;5022087;28;20108;-81
2021/07/14 00:35:23;;;;;;;16.25;12.63;;;640.30;2278.40;;;;;;5022185;28;20440;-81
2021/07/14 00:37:49;;;;;;;14.88;12.15;;;640.50;2278.40;;;;;;5022198;28;20017;-82
2021/07/14 00:40:14;;;;;;;17.13;12.98;;;640.50;2278.40;;;;;;5021693;28;20029;-82
2021/07/14 00:42:41;;;;;;;17.40;12.55;;;640.60;2278.40;;;;;;5022146;28;20132;-81
2021/07/14 00:45:08;;;;;;;18.45;12.88;;;640.60;2278.40;;;;;;5021860;28;20081;-81
2021/07/14 00:47:35;;;;;;;17.58;13.18;;;640.70;2278.40;;;;;;5039590;28;20021;-82
2021/07/14 00:50:04;;;;;;;19.65;12.75;;;640.70;2278.40;;;;;;5022006;28;20449;-82
2021/07/14 00:52:30;;;;;;;14.63;12.75;;;640.50;2278.40;;;;;;5022169;28;20446;-82
2021/07/14 00:54:57;;;;;;;17.88;12.95;;;640.50;2278.40;;;;;;5039602;28;20357;-82
2021/07/14 00:57:26;;;;;;;19.90;13.75;;;640.30;2278.40;;;;;;5022135;28;20441;-81
2021/07/14 00:59:52;;;;;;;15.10;12.77;;;640.20;2304.00;;;;;;5022125;28;20087;-81
2021/07/14 01:02:18;;;;;;;18.25;12.82;;;615.20;2380.80;;;;;;5037326;28;20025;-82
2021/07/14 01:05:15;;;;;;;19.58;12.85;;;615.20;2355.20;;;;;;5018893;28;20319;-82
2021/07/14 01:08:19;;;;;;;16.17;13.43;;;615.00;2406.40;;;;;;5018625;28;20017;-82
2021/07/14 01:10:55;;;;;;;17.30;12.75;;;615.00;2380.80;;;;;;5008342;28;20033;-82
2021/07/14 01:13:44;;;;;;;18.30;13.40;;;615.00;2380.80;;;;;;5018833;28;20112;-81
2021/07/14 01:16:16;;;;;;;16.17;12.50;;;615.10;2406.40;;;;;;5018592;28;20048;-82
2021/07/14 01:18:48;;;;;;;16.75;13.00;;;615.20;2406.40;;;;;;5018678;28;20484;-82
2021/07/14 01:21:19;;;;;;;18.15;13.48;;;615.20;2380.80;;;;;;5018648;28;20028;-81
2021/07/14 01:24:22;;;;;;;19.13;14.00;;;615.10;2406.40;;;;;;5036144;28;20053;-81
2021/07/14 01:27:07;;;;;;;22.63;14.38;;;614.90;2432.00;;;;;;5018525;28;20022;-81
2021/07/14 01:29:50;;;;;;;16.50;13.77;;;614.80;2432.00;;;;;;5018165;28;20373;-82
2021/07/14 01:32:18;;;;;;;16.17;13.30;;;614.80;2432.00;;;;;;5018695;28;20104;-82
2021/07/14 01:34:49;;;;;;;17.42;13.35;;;614.70;2432.00;;;;;;5018306;28;20523;-81
2021/07/14 01:37:21;;;;;;;18.90;13.18;;;614.70;2432.00;;;;;;5018157;28;20029;-81
2021/07/14 01:39:50;;;;;;;;;;;614.70;2432.00;;;;;;5036583;28;20079;-82
2021/07/14 01:42:17;;;;;;;14.73;12.70;;;614.60;2432.00;;;;;;5018192;28;19905;-80
2021/07/14 01:44:45;;;;;;;17.88;13.50;;;614.70;2432.00;;;;;;5017747;28;20025;-81
2021/07/14 01:47:12;;;;;;;15.07;12.65;;;614.60;2432.00;;;;;;5018110;28;20108;-81
2021/07/14 01:49:41;;;;;;;22.00;13.95;;;614.50;2432.00;;;;;;5035467;28;20021;-82
2021/07/14 01:52:11;;;;;;;20.13;14.00;;;614.60;2432.00;;;;;;5017970;28;20025;-81
2021/07/14 01:54:38;;;;;;;19.05;13.68;;;614.50;2432.00;;;;;;5018110;28;20099;-82
2021/07/14 01:57:05;;;;;;;15.95;13.40;;;614.70;2432.00;;;;;;5017637;28;20472;-81
2021/07/14 01:59:33;;;;;;;21.83;13.52;;;614.80;2432.00;;;;;;5017971;28;20453;-81
2021/07/14 02:02:02;;;;;;;19.20;13.63;;;614.70;2432.00;;;;;;5018032;28;20025;-81
2021/07/14 02:04:30;;;;;;;17.17;13.35;;;614.70;2432.00;;;;;;5017595;28;20076;-82
2021/07/14 02:07:09;;;;;;;17.95;14.18;;;614.70;2432.00;;;;;;5017852;28;20112;-81
2021/07/14 02:09:38;;;;;;;17.25;13.70;;;614.60;2432.00;;;;;;5017668;28;20032;-81
2021/07/14 02:12:07;;;;;;;21.27;13.70;;;614.80;2432.00;;;;;;5034932;28;20057;-81
2021/07/14 02:14:39;;;;;;;17.27;14.07;;;614.80;2432.00;;;;;;5016223;28;20032;-81
2021/07/14 02:17:13;;;;;;;15.75;12.80;;;614.70;2432.00;;;;;;5017604;28;20025;-81
2021/07/14 02:19:44;;;;;;;17.05;14.02;;;614.70;2432.00;;;;;;5017327;28;20115;-81
2021/07/14 02:22:10;;;;;;;16.73;13.13;;;614.70;2432.00;;;;;;5017740;28;20032;-81
2021/07/14 02:24:36;;;;;;;17.25;14.63;;;589.70;2432.00;;;;;;5034878;28;20026;-81
2021/07/14 02:27:05;;;;;;;19.60;14.30;;;589.70;2432.00;;;;;;5017207;28;20033;-81
2021/07/14 02:29:34;;;;;;;20.45;15.10;;;589.70;2432.00;;;;;;5034819;28;20472;-81
2021/07/14 02:32:00;;;;;;;20.98;15.32;;;589.50;2432.00;;;;;;5017053;28;20056;-81
2021/07/14 02:34:26;;;;;;;19.52;15.02;;;589.40;2432.00;;;;;;5017202;28;20107;-81
2021/07/14 02:36:53;;;;;;;18.25;14.43;;;;;;;;;;5017196;28;20453;-81
2021/07/14 02:39:20;;;;;;;15.88;14.05;;;614.40;2432.00;;;;;;5034720;28;20104;-81
2021/07/14 02:41:54;;;;;;;18.08;13.38;;;589.60;2432.00;;;;;;5017055;28;20024;-81
2021/07/14 02:44:24;;;;;;;18.08;12.70;;;589.70;2432.00;;;;;;5017160;28;20029;-80
2021/07/14 02:46:51;;;;;;;18.52;13.02;;;614.50;2432.00;;;;;;5016226;28;20049;-81
2021/07/14 02:49:27;;;;;;;15.50;13.90;;;614.50;2432.00;;;;;;5017056;28;20060;-81
2021/07/14 02:51:54;;;;;;;19.23;13.88;;;614.60;2432.00;;;;;;5016989;28;20120;-81
2021/07/14 02:54:26;;;;;;;15.85;14.07;;;614.40;2432.00;;;;;;5016694;28;20056;-81
2021/07/14 02:56:58;;;;;;;;;;;614.60;2432.00;;;;;;5035114;28;20050;-80
2021/07/14 02:59:27;;;;;;;24.65;15.65;;;614.40;2432.00;;;;;;5016908;28;19944;-81
2021/07/14 03:01:55;;;;;;;18.65;14.98;;;589.60;2432.00;;;;;;5016725;28;20057;-80
2021/07/14 03:04:25;;;;;;;24.35;16.23;;;589.70;2432.00;;;;;;5016864;28;20021;-80
2021/07/14 03:06:51;;;;;;;19.83;13.75;;;589.40;2432.00;;;;;;5016417;28;20029;-81
2021/07/14 03:09:19;;;;;;;18.17;14.73;;;589.30;2432.00;;;;;;5016522;28;20108;-80
2021/07/14 03:11:46;;;;;;;20.15;14.38;;;589.20;2432.00;;;;;;5034300;28;20084;-81
2021/07/14 03:14:13;;;;;;;16.52;14.30;;;;;;;;;;5016386;28;20060;-81
2021/07/14 03:16:40;;;;;;;18.27;14.75;;;;;;;;;;5016532;28;20013;-81
2021/07/14 03:19:07;;;;;;;17.65;14.20;;;;;;;;;;5016585;28;20368;-81
2021/07/14 03:21:34;;;;;;;20.67;14.68;;;;;;;;;;5033752;28;20477;-81
2021/07/14 03:24:04;;;;;;;23.98;14.60;;;589.20;2432.00;;;;;;5016650;28;20025;-80
2021/07/14 03:26:30;;;;;;;18.90;14.98;;;588.80;2432.00;;;;;;5015865;28;20021;-81
2021/07/14 03:28:56;;;;;;;18.55;14.30;;;589.00;2432.00;;;;;;5016175;28;20407;-81
2021/07/14 03:31:22;;;;;;;17.50;14.13;;;589.10;2432.00;;;;;;5016462;28;20029;-81
2021/07/14 03:33:48;;;;;;;24.63;15.13;;;589.20;2432.00;;;;;;5034046;28;20108;-81
2021/07/14 03:36:15;;;;;;;20.38;14.65;;;589.00;2432.00;;;;;;5015947;28;20105;-81
2021/07/14 03:38:41;;;;;;;20.83;14.93;;;589.10;2432.00;;;;;;5016203;28;20021;-81
2021/07/14 03:41:08;;;;;;;21.17;14.98;;;588.80;2432.00;;;;;;5016162;28;20056;-81
2021/07/14 03:43:34;;;;;;;18.88;15.50;;;588.80;2432.00;;;;;;5015676;28;20029;-81
2021/07/14 03:46:02;;;;;;;20.90;14.98;;;588.90;2432.00;;;;;;5015912;28;20042;-81
2021/07/14 03:48:31;;;;;;;20.63;14.85;;;564.00;2432.00;;;;;;5015870;28;20028;-81
2021/07/14 03:50:59;;;;;;;20.80;14.73;;;564.00;2432.00;;;;;;5015956;28;20031;-81
2021/07/14 03:53:25;;;;;;;20.90;15.48;;;564.10;2432.00;;;;;;5016034;28;20075;-80
2021/07/14 03:55:52;;;;;;;18.25;15.65;;;564.10;2432.00;;;;;;5015951;28;20021;-81
2021/07/14 03:58:20;;;;;;;19.05;14.68;;;564.10;2432.00;;;;;;5016233;28;20033;-81
2021/07/14 04:00:48;;;;;;;20.50;15.93;;;563.80;2432.00;;;;;;5016131;28;20021;-81
2021/07/14 04:03:24;;;;;;;23.50;15.25;;;563.60;2432.00;;;;;;5016047;28;20480;-81
2021/07/14 04:06:05;;;;;;;22.52;15.07;;;563.40;2432.00;;;;;;5016362;28;20373;-81
2021/07/14 04:08:45;;;;;;;23.65;15.27;;;563.70;2432.00;;;;;;5015983;28;20120;-81
2021/07/14 04:11:14;;;;;;;18.83;14.43;;;563.80;2432.00;;;;;;5015690;28;20029;-81
2021/07/14 04:13:41;;;;;;;20.23;15.70;;;563.90;2432.00;;;;;;5016016;28;20022;-82
2021/07/14 04:16:07;;;;;;;20.08;15.73;;;564.00;2432.00;;;;;;5015911;28;20057;-81
2021/07/14 04:18:33;;;;;;;21.90;14.63;;;563.90;2432.00;;;;;;5015642;28;20057;-81
2021/07/14 04:20:59;;;;;;;19.30;14.38;;;563.90;2432.00;;;;;;5015926;28;20017;-82
2021/07/14 04:23:26;;;;;;;19.10;14.18;;;564.10;2432.00;;;;;;5015783;28;20464;-79
2021/07/14 04:25:52;;;;;;;22.15;14.27;;;564.10;2432.00;;;;;;5015742;28;20025;-82
2021/07/14 04:28:19;;;;;;;21.35;15.93;;;588.90;2432.00;;;;;;5033737;28;20056;-81
2021/07/14 04:30:44;;;;;;;17.60;15.10;;;589.10;2432.00;;;;;;5033183;28;20021;-81
2021/07/14 04:33:11;;;;;;;19.92;15.13;;;589.20;2432.00;;;;;;5015682;28;20124;-81
2021/07/14 04:35:39;;;;;;;20.55;15.70;;;589.20;2432.00;;;;;;5015790;28;20022;-81
2021/07/14 04:38:06;;;;;;;23.60;15.52;;;589.10;2432.00;;;;;;5017366;28;20112;-82
2021/07/14 04:40:33;;;;;;;26.42;15.70;;;588.80;2432.00;;;;;;5019350;28;20021;-81
2021/07/14 04:42:58;;;;;;;20.63;15.52;;;588.90;2432.00;;;;;;5036762;28;20025;-82
2021/07/14 04:45:24;;;;;;;20.73;16.02;;;589.10;2432.00;;;;;;5018814;28;20045;-82
2021/07/14 04:47:50;;;;;;;25.77;17.70;;;589.20;2432.00;;;;;;5019064;28;20026;-81
2021/07/14 04:50:16;;;;;;;23.20;16.02;;;589.20;2432.00;;;;;;5019216;28;20059;-81
2021/07/14 04:52:42;;;;;;;18.58;14.80;;;589.30;2432.00;;;;;;5019076;28;20022;-82
2021/07/14 04:55:08;;;;;;;25.88;16.15;;;589.30;2432.00;;;;;;5019455;28;20520;-81
2021/07/14 04:57:34;;;;;;;21.73;16.67;;;589.30;2432.00;;;;;;5019390;28;20022;-80
2021/07/14 05:00:00;;;;;;;21.85;16.48;;;589.50;2432.00;;;;;;5019085;28;20052;-79
2021/07/14 05:02:26;;;;;;;21.35;16.25;;;589.50;2432.00;;;;;;5019102;28;20108;-80
2021/07/14 05:04:52;;;;;;;20.70;16.35;;;589.30;2432.00;;;;;;5019087;28;20441;-81
2021/07/14 05:07:18;;;;;;;22.73;15.95;;;589.60;2432.00;;;;;;5036614;28;20021;-82
2021/07/14 05:09:43;;;;;;;25.70;16.50;;;589.50;2432.00;;;;;;5018771;28;20021;-81
2021/07/14 05:12:09;;;;;;;22.77;15.18;;;589.60;2432.00;;;;;;5018956;28;20029;-81
2021/07/14 05:14:35;;;;;;;23.23;15.70;;;589.70;2432.00;;;;;;5018703;28;20474;-81
2021/07/14 05:17:01;;;;;;;23.70;16.35;;;589.70;2432.00;;;;;;5036793;28;20025;-82
2021/07/14 05:19:26;;;;;;;22.88;15.95;;;589.60;2432.00;;;;;;5018373;28;20026;-81
2021/07/14 05:21:52;;;;;;;24.48;15.90;;;589.70;2432.00;;;;;;5036361;28;20083;-81
2021/07/14 05:24:18;;;;;;;24.48;16.38;;;589.60;2432.00;;;;;;5018534;28;20449;-81
2021/07/14 05:26:44;;;;;;;21.75;16.00;;;589.70;2432.00;;;;;;5018190;28;20087;-81
2021/07/14 05:29:09;;;;;;;25.83;17.27;;;589.70;2432.00;;;;;;5036139;28;20424;-81
2021/07/14 05:31:35;;;;;;;24.13;16.15;;;589.70;2432.00;;;;;;5018491;28;20060;-82
2021/07/14 05:34:01;;;;;;;19.33;15.77;;;589.70;2432.00;;;;;;5018109;28;20025;-81
2021/07/14 05:36:27;;;;;;;24.48;17.27;;;614.50;2432.00;;;;;;5036063;28;20021;-82
2021/07/14 05:38:53;;;;;;;25.05;14.57;;;614.50;2432.00;;;;;;5018225;28;20376;-82
2021/07/14 05:41:19;;;;;;;24.13;15.10;;;614.60;2432.00;;;;;;5035691;28;20041;-82
2021/07/14 05:43:45;;;;;;;21.23;15.43;;;614.80;2432.00;;;;;;5036051;28;20438;-81
2021/07/14 05:46:10;;;;;;;18.55;14.85;;;614.80;2432.00;;;;;;5035421;28;20072;-81
2021/07/14 05:48:36;;;;;;;16.30;14.02;;;614.90;2432.00;;;;;;5017561;28;20036;-82
2021/07/14 05:51:02;;;;;;;17.65;14.35;;;615.20;2432.00;;;;;;5017938;28;20365;-81
2021/07/14 05:53:28;;;;;;;19.52;14.65;;;615.00;2432.00;;;;;;5018113;28;20028;-81
2021/07/14 05:55:54;;;;;;;19.15;15.13;;;615.10;2432.00;;;;;;5035557;28;20022;-81
2021/07/14 05:58:20;;;;;;;26.25;16.65;;;615.30;2432.00;;;;;;5017921;28;20018;-82
2021/07/14 06:00:45;;;;;;;25.45;15.65;;;615.30;2432.00;;;;;;5035367;28;20483;-83
2021/07/14 06:03:11;;;;;;;24.77;15.45;;;640.10;2432.00;;;;;;5017716;28;20156;-81
2021/07/14 06:05:37;;;;;;;22.35;15.23;;;640.20;2432.00;;;;;;5017729;28;20480;-81
2021/07/14 06:08:04;;;;;;;25.40;16.45;;;640.40;2432.00;;;;;;5017921;28;20350;-82
2021/07/14 06:10:30;;;;;;;22.38;15.30;;;640.50;2432.00;;;;;;5017477;28;20032;-82
2021/07/14 06:12:56;;;;;;;21.60;15.57;;;640.60;2432.00;;;;;;5035671;28;20052;-81
2021/07/14 06:15:24;;;;;;;23.17;15.52;;;640.60;2432.00;;;;;;5017516;28;20072;-81
2021/07/14 06:17:51;;;;;;;21.75;15.75;;;640.80;2432.00;;;;;;5017608;28;20032;-81
2021/07/14 06:20:17;;;;;;;22.60;15.90;;;640.90;2432.00;;;;;;5017543;28;20029;-82
2021/07/14 06:22:43;;;;;;;22.55;17.00;;;665.80;2432.00;;;;;;5017349;28;20116;-82
2021/07/14 06:25:11;;;;;;;19.08;15.05;;;665.90;2432.00;;;;;;5034935;28;20100;-81
2021/07/14 06:27:37;;;;;;;22.33;16.23;;;665.90;2432.00;;;;;;5017426;28;20072;-82
2021/07/14 06:30:09;;;;;;;18.45;14.45;;;665.90;2432.00;;;;;;5017250;28;20033;-81
2021/07/14 06:32:35;;;;;;;19.70;14.77;;;666.20;2432.00;;;;;;5017455;28;20025;-81
2021/07/14 06:35:03;;;;;;;20.35;14.85;;;666.50;2432.00;;;;;;5017255;28;20372;-81
2021/07/14 06:37:29;;;;;;;20.08;15.73;;;691.20;2432.00;;;;;;5016896;28;20025;-82
2021/07/14 06:39:54;;;;;;;16.48;14.70;;;691.20;2432.00;;;;;;5017226;28;20028;-81
2021/07/14 06:42:20;;;;;;;15.80;13.98;;;691.30;2432.00;;;;;;5017100;28;20064;-82
2021/07/14 06:44:46;;;;;;;19.98;14.70;;;691.40;2432.00;;;;;;5016638;28;20025;-82
2021/07/14 06:47:13;;;;;;;19.20;13.98;;;691.40;2432.00;;;;;;5017160;28;20052;-81
2021/07/14 06:49:39;;;;;;;16.30;13.57;;;691.40;2432.00;;;;;;5017036;28;20346;-81
2021/07/14 06:52:05;;;;;;;21.38;14.35;;;691.60;2432.00;;;;;;5034430;28;20025;-80
2021/07/14 06:54:31;;;;;;;16.95;13.68;;;691.60;2432.00;;;;;;5016719;28;20025;-81
2021/07/14 06:56:57;;;;;;;19.60;13.68;;;691.80;2432.00;;;;;;5016862;28;20024;-81
2021/07/14 06:59:23;;;;;;;17.80;13.95;;;691.80;2406.40;;;;;;5016487;28;20029;-81
2021/07/14 07:01:49;;;;;;;20.45;13.43;;;691.90;2380.80;;;;;;5016285;28;20040;-81
2021/07/14 07:04:15;;;;;;;18.23;14.40;;;691.90;2355.20;;;;;;5016585;28;20079;-81
2021/07/14 07:06:40;;;;;;;18.10;13.25;;;692.10;2380.80;;;;;;5016483;28;20025;-81
2021/07/14 07:09:06;;;;;;;14.70;12.90;;;716.80;2355.20;;;;;;5016411;28;20031;-81
2021/07/14 07:11:36;;;;;;;14.85;13.30;;;717.10;2329.60;;;;;;5016375;28;20079;-80
2021/07/14 07:14:05;;;;;;;16.17;12.90;;;717.30;2329.60;;;;;;5016586;28;20526;-81
2021/07/14 07:16:31;;;;;;;20.63;12.52;;;717.40;2252.80;;;;;;5016456;28;20527;-81
2021/07/14 07:18:57;;;;;;;21.23;13.20;;;717.40;2252.80;;;;;;5016118;28;20029;-80
2021/07/14 07:21:26;;;;;;;14.30;12.50;;;717.50;2227.20;;;;;;5017497;28;20079;-79
2021/07/14 07:23:52;;;;;;;21.90;13.25;;;717.70;2252.80;;;;;;5018565;28;20048;-80
2021/07/14 07:26:18;;;;;;;19.17;13.77;;;742.50;2278.40;;;;;;5019166;28;20022;-80
2021/07/14 07:28:44;;;;;;;31.50;17.50;;;742.70;2252.80;;;;;;5017498;28;20032;-80
2021/07/14 07:31:10;;;;;;;21.45;15.48;;;742.90;2227.20;;;;;;5036657;28;20022;-80
2021/07/14 07:33:39;;;;;;;17.48;14.15;;;743.10;2227.20;;;;;;5017555;28;20087;-82
2021/07/14 07:36:06;;;;;;;20.60;14.27;;;743.10;2150.40;;;;;;5018993;28;20072;-82
2021/07/14 07:38:33;;;;;;;13.10;11.82;;;743.10;2150.40;;;;;;5020037;28;20120;-81
2021/07/14 07:40:59;;;;;;;24.35;13.98;;;743.20;2150.40;;;;;;5019966;28;20021;-81
2021/07/14 07:43:28;;;;;;;15.57;13.75;;;768.00;2176.00;;;;;;5036847;28;20083;-80
2021/07/14 07:45:54;;;;;;;26.15;16.70;;;768.20;2150.40;;;;;;5027240;28;20056;-81
2021/07/14 07:48:21;;;;;;;21.42;17.85;;;768.40;2150.40;;;;;;5036995;28;20037;-79
2021/07/14 07:50:48;;;;;;;15.85;13.70;;;768.60;2099.20;;;;;;5028450;28;20026;-81
2021/07/14 07:53:18;;;;;;;18.63;12.77;;;768.80;2073.60;;;;;;5022046;28;20020;-81
2021/07/14 07:55:45;;;;;;;41.20;14.15;;;793.70;2073.60;;;;;;5015219;28;20061;-80
2021/07/14 07:58:11;;;;;;;34.30;14.23;;;793.80;2022.40;;;;;;5022688;28;20018;-81
2021/07/14 08:00:38;;;;;;;37.97;14.43;;;794.00;1996.80;;;;;;5022642;28;20028;-81
2021/07/14 08:03:04;;;;;;;71.28;23.30;;;794.20;1971.20;;;;;;5021673;28;20026;-82
2021/07/14 08:05:29;;;;;;;58.78;16.40;;;794.30;1971.20;;;;;;5020162;28;20018;-83
2021/07/14 08:07:56;;;;;;;13.85;11.02;;;794.30;1945.60;;;;;;5029782;28;20021;-82
2021/07/14 08:10:21;;;;;;;12.23;10.77;;;794.00;1971.20;;;;;;5013321;28;20454;-81
2021/07/14 08:12:47;;;;;;;18.92;12.13;;;794.00;1971.20;;;;;;5032292;28;20095;-81
2021/07/14 08:15:13;;;;;;;15.15;11.75;;;794.20;1996.80;;;;;;5037567;28;20025;-81
2021/07/14 08:17:40;;;;;;;25.33;13.93;;;794.30;1971.20;;;;;;5034260;28;20024;-81
2021/07/14 08:20:08;;;;;;;15.10;11.23;;;819.30;1971.20;;;;;;5037230;28;20131;-80
2021/07/14 08:22:34;;;;;;;16.83;11.30;;;819.20;1920.00;;;;;;5036179;28;20091;-84
2021/07/14 08:25:01;;;;;;;15.35;11.70;;;819.30;1920.00;;;;;;5036709;28;20484;-83
2021/07/14 08:27:27;;;;;;;17.33;12.68;;;819.40;1920.00;;;;;;5037359;28;20036;-82
2021/07/14 08:29:58;;;;;;;22.52;12.20;;;819.50;1920.00;;;;;;5036179;28;20516;-82
2021/07/14 08:32:24;;;;;;;;;;;819.80;1920.00;;;;;;5029570;28;20037;-79
2021/07/14 08:34:50;;;;;;;18.33;12.55;;;819.80;1894.40;;;;;;5017959;28;20048;-82
2021/07/14 08:37:16;;;;;;;18.80;11.57;;;820.10;1894.40;;;;;;5019885;28;20061;-85
2021/07/14 08:39:42;;;;;;;15.68;11.35;;;819.90;1868.80;;;;;;5020058;28;20026;-83
2021/07/14 08:42:10;;;;;;;17.88;13.35;;;820.10;1868.80;;;;;;5018760;28;20465;-86
2021/07/14 08:44:36;;;;;;;22.70;13.75;;;844.90;1894.40;;;;;;5017985;28;20436;-83
2021/07/14 08:47:03;;;;;;;16.15;12.50;;;845.00;1868.80;;;;;;5019945;28;20094;-82
2021/07/14 08:49:32;;;;;;;15.52;13.48;;;845.40;1868.80;;;;;;5020004;28;20029;-81
2021/07/14 08:51:58;;;;;;;21.83;11.27;;;845.40;1868.80;;;;;;5019515;28;20029;-82
2021/07/14 08:54:27;;;;;;;23.42;12.85;;;845.50;1843.20;;;;;;5019431;28;20108;-81
2021/07/14 08:56:59;;;;;;;14.35;11.18;;;845.70;1843.20;;;;;;5019314;28;20021;-82
2021/07/14 08:59:50;;;;;;;12.13;10.30;;;870.50;1817.60;;;;;;5018951;28;20018;-82
2021/07/14 09:02:16;;;;;;;14.75;11.63;;;870.60;1766.40;;;;;;5019792;28;20457;-81
2021/07/14 09:04:42;;;;;;;12.82;10.70;;;870.90;1766.40;;;;;;5019684;28;20017;-82
2021/07/14 09:07:12;;;;;;;16.02;11.20;;;870.90;1766.40;;;;;;5020175;28;20013;-84
2021/07/14 09:09:38;;;;;;;15.73;11.63;;;871.30;1715.20;;;;;;5020616;28;20017;-81
2021/07/14 09:12:12;;;;;;;15.98;12.15;;;871.30;1715.20;;;;;;5020805;28;20018;-84
2021/07/14 09:14:41;;;;;;;13.98;12.00;;;896.00;1715.20;;;;;;5019663;28;20013;-82
2021/07/14 09:17:25;;;;;;;15.48;10.60;;;896.00;1689.60;;;;;;5037005;28;20108;-84
2021/07/14 09:20:11;;;;;;;18.15;13.93;;;896.30;1689.60;;;;;;5019030;28;20075;-85
2021/07/14 09:22:38;;;;;;;17.10;11.90;;;896.40;1664.00;;;;;;5018428;28;20091;-82
2021/07/14 09:25:17;;;;;;;14.05;10.57;;;896.60;1689.60;;;;;;5018154;28;20033;-83
2021/07/14 09:28:16;;;;;;;13.98;11.70;;;896.70;1664.00;;;;;;5018704;28;20021;-84
2021/07/14 09:30:43;;;;;;;15.20;10.98;;;896.90;1638.40;;;;;;5019150;28;20477;-84
2021/07/14 09:33:17;;;;;;;21.48;11.63;;;896.90;1638.40;;;;;;5018568;28;20021;-84
2021/07/14 09:35:46;;;;;;;14.65;11.05;;;921.70;1638.40;;;;;;5019010;28;20021;-84
2021/07/14 09:38:14;;;;;;;18.02;10.75;;;921.80;1638.40;;;;;;5020376;28;20017;-85
2021/07/14 09:40:43;;;;;;;14.88;11.05;;;921.90;1638.40;;;;;;5027347;28;20021;-83
2021/07/14 09:43:10;;;;;;;15.68;11.18;;;922.00;1612.80;;;;;;5043483;28;20024;-84
2021/07/14 09:45:45;;;;;;;15.15;11.40;;;922.10;1612.80;;;;;;5054060;28;20041;-85
2021/07/14 09:48:19;;;;;;;14.27;11.13;;;922.20;1587.20;;;;;;5060926;28;20043;-85
2021/07/14 09:51:11;;;;;;;14.77;10.95;;;922.40;1587.20;;;;;;5061650;28;20057;-84
2021/07/14 10:04:12;;;;;;;27.45;11.65;;;947.80;1561.60;;;;;;5037701;28;20042;-84
2021/07/14 10:06:38;;;;;;;18.88;11.40;;;947.80;1510.40;;;;;;5023090;28;20010;-87
2021/07/14 10:09:04;;;;;;;16.30;10.30;;;947.90;1510.40;;;;;;5021078;28;20099;-85
2021/07/14 10:11:33;;;;;;;15.05;10.30;;;948.00;1510.40;;;;;;5022437;28;20013;-87
2021/07/14 10:14:11;;;;;;;13.50;10.00;;;947.90;1484.80;;;;;;5023049;28;20010;-86
2021/07/14 10:16:42;;;;;;;15.80;10.95;;;948.10;1510.40;;;;;;5023037;28;20014;-82
2021/07/14 10:19:13;;;;;;;20.30;9.55;;;973.00;1510.40;;;;;;5022457;28;20018;-83
2021/07/14 10:21:41;;;;;;;29.35;14.73;;;973.10;1484.80;;;;;;5023112;28;20020;-81
2021/07/14 10:24:10;;;;;;;25.75;11.95;;;973.00;1510.40;;;;;;5004964;28;20030;-83
2021/07/14 10:26:38;;;;;;;27.17;12.02;;;972.80;1484.80;;;;;;4998250;28;20484;-83
2021/07/14 10:29:05;;;;;;;15.15;10.40;;;973.10;1484.80;;;;;;4997856;28;20127;-82
2021/07/14 10:31:32;;;;;;;16.35;9.85;;;973.20;1459.20;;;;;;4997863;28;20026;-84
2021/07/14 10:33:59;;;;;;;14.70;9.35;;;973.30;1459.20;;;;;;4998150;28;20044;-83
2021/07/14 10:36:30;;;;;;;13.65;9.60;;;973.20;1433.60;;;;;;4997052;28;20032;-84
2021/07/14 10:39:01;;;;;;;;;;;973.30;1433.60;;;;;;4998753;28;20022;-83
2021/07/14 10:41:32;;;;;;;15.25;11.60;;;973.30;1433.60;;;;;;4998388;28;19956;-84
2021/07/14 10:44:01;;;;;;;14.37;11.07;;;973.40;1433.60;;;;;;4998026;28;20209;-84
2021/07/14 10:46:29;;;;;;;14.48;11.05;;;973.60;1408.00;;;;;;4997871;28;20540;-88
2021/07/14 10:49:01;;;;;;;15.93;11.35;;;973.70;1408.00;;;;;;4998199;28;20422;-85
2021/07/14 10:51:29;;;;;;;14.57;9.65;;;998.40;1433.60;;;;;;4998268;28;20061;-85
2021/07/14 10:53:58;;;;;;;17.63;9.98;;;998.60;1408.00;;;;;;4998069;28;20022;-85
2021/07/14 10:56:54;;;;;;;20.77;12.20;;;998.60;1408.00;;;;;;4997580;28;20024;-85
2021/07/14 10:59:22;;;;;;;14.15;11.02;;;998.70;1382.40;;;;;;4915088;28;20040;-86
2021/07/14 11:01:51;;;;;;;12.05;9.35;;;998.80;1382.40;;;;;;5000438;28;20018;-84
2021/07/14 11:04:26;;;;;;;12.60;9.20;;;998.80;1356.80;;;;;;4989474;28;20504;-84
2021/07/14 11:07:08;;;;;;;14.65;9.15;;;998.80;1356.80;;;;;;4992127;28;20026;-83
2021/07/14 11:09:41;;;;;;;16.73;9.52;;;999.00;1356.80;;;;;;5003245;28;20022;-85
2021/07/14 11:12:26;;;;;;;13.07;8.82;;;999.00;1356.80;;;;;;5010977;28;20029;-85
2021/07/14 11:15:00;;;;;;;24.95;11.23;;;999.10;1356.80;;;;;;5012518;28;20056;-85
2021/07/14 11:17:35;;;;;;;26.90;12.20;;;999.20;1356.80;;;;;;5015380;28;20034;-86
2021/07/14 11:25:33;;;;;;;22.70;11.82;;;1024.10;1331.20;;;;;;5523793;22;20037;-84
2021/07/14 11:28:10;;;;;;;18.88;14.85;;;1024.20;1331.20;;;;;;5364170;23;20042;-86
2021/07/14 11:31:06;;;;;;;52.05;24.40;;;1024.20;1305.60;;;;;;5041042;28;20041;-85
2021/07/14 11:33:38;;;;;;;23.23;13.07;;;1024.20;1305.60;;;;;;5039524;28;20089;-80
2021/07/14 11:36:08;;;;;;;14.25;11.15;;;1024.20;1305.60;;;;;;5055994;28;20033;-84
2021/07/14 11:38:36;;;;;;;18.15;10.75;;;1024.20;1305.60;;;;;;5041322;28;20025;-85
2021/07/14 11:41:03;;;;;;;17.60;10.98;;;1024.30;1280.00;;;;;;5041146;28;20068;-85
2021/07/14 11:43:39;;;;;;;29.45;12.38;;;1024.60;1280.00;;;;;;5041088;28;20056;-85
2021/07/14 11:46:10;;;;;;;13.63;9.27;;;1024.90;1305.60;;;;;;5032490;28;20022;-88
2021/07/14 11:48:39;;;;;;;12.75;8.73;;;1024.90;1254.40;;;;;;5020424;28;20124;-84
2021/07/14 11:51:08;;;;;;;11.90;8.18;;;1024.70;1280.00;;;;;;5018117;28;20025;-82
2021/07/14 11:53:37;;;;;;;14.40;8.70;;;1024.60;1254.40;;;;;;5017708;28;20018;-83
2021/07/14 11:56:06;;;;;;;11.50;8.60;;;1024.90;1280.00;;;;;;5035040;28;20045;-84
2021/07/14 11:58:52;;;;;;;15.02;8.52;;;1049.60;1280.00;;;;;;5016801;28;20024;-85
2021/07/14 12:01:20;;;;;;;16.55;8.13;;;1049.60;1280.00;;;;;;5034380;28;20017;-82
2021/07/14 12:04:01;;;;;;;16.73;8.48;;;1024.90;1254.40;;;;;;5017963;28;20356;-84
2021/07/14 12:06:47;;;;;;;;;;;1049.60;1254.40;;;;;;5017407;28;20037;-86
2021/07/14 12:09:12;;;;;;;13.90;7.75;;;1049.80;1254.40;;;;;;5016221;28;19905;-85
2021/07/14 12:12:12;;;;;;;13.90;8.07;;;1049.80;1254.40;;;;;;5016331;28;20528;-83
2021/07/14 12:14:42;;;;;;;10.68;7.68;;;1050.00;1254.40;;;;;;5017937;28;20049;-83
2021/07/14 12:17:10;;;;;;;13.52;9.32;;;1050.10;1254.40;;;;;;5017259;28;20028;-83
2021/07/14 12:19:57;;;;;;;12.27;7.47;;;1050.10;1254.40;;;;;;5017881;28;20197;-84
2021/07/14 12:22:25;;;;;;;10.57;8.52;;;1050.00;1228.80;;;;;;5017544;28;20030;-85
2021/07/14 12:24:54;;;;;;;13.43;8.43;;;1050.10;1254.40;;;;;;5016599;28;20025;-86
2021/07/14 12:27:28;;;;;;;8.77;7.38;;;1050.20;1228.80;;;;;;5016872;28;20053;-85
2021/07/14 12:29:56;;;;;;;10.70;8.32;;;1050.20;1228.80;;;;;;5017320;28;20037;-86
2021/07/14 12:32:45;;;;;;;9.32;8.25;;;1050.30;1254.40;;;;;;5016977;28;20022;-84